createdAt,value
2017-10-28T00:01:02.105Z,4.87
2017-10-28T00:03:04.792Z,4.40
2017-10-28T00:05:07.465Z,5.40
2017-10-28T00:07:10.234Z,4.30
2017-10-28T00:09:12.918Z,5.30
2017-10-28T00:11:15.699Z,4.27
2017-10-28T00:13:18.329Z,5.10
2017-10-28T00:15:20.965Z,5.00
2017-10-28T00:17:23.738Z,4.60
2017-10-28T00:19:26.373Z,5.07
2017-10-28T00:21:29.806Z,4.40
2017-10-28T00:23:32.495Z,5.23
2017-10-28T00:25:35.143Z,5.30
2017-10-28T00:27:37.777Z,4.67
2017-10-28T00:29:41.238Z,5.33
2017-10-28T00:31:49.511Z,5.27
2017-10-28T00:33:57.959Z,5.20
2017-10-28T00:36:06.411Z,4.80
2017-10-28T00:38:09.950Z,4.87
2017-10-28T00:40:12.720Z,4.77
2017-10-28T00:42:15.409Z,5.30
2017-10-28T00:44:18.041Z,6.60
2017-10-28T00:46:21.449Z,5.13
2017-10-28T00:48:24.117Z,5.50
2017-10-28T00:50:27.632Z,5.90
2017-10-28T00:52:30.297Z,5.40
2017-10-28T00:54:32.952Z,5.23
2017-10-28T00:56:36.374Z,4.80
2017-10-28T00:58:39.039Z,6.07
2017-10-28T01:00:42.472Z,5.20
2017-10-28T01:02:45.231Z,4.57
2017-10-28T01:04:47.926Z,4.83
2017-10-28T01:06:50.576Z,6.10
2017-10-28T01:08:53.264Z,5.40
2017-10-28T01:10:56.061Z,5.70
2017-10-28T01:12:58.744Z,4.50
2017-10-28T01:15:01.496Z,5.20
2017-10-28T01:17:04.197Z,4.30
2017-10-28T01:19:07.669Z,4.77
2017-10-28T01:21:10.428Z,4.87
2017-10-28T01:23:13.155Z,4.70
2017-10-28T01:25:15.829Z,4.50
2017-10-28T01:27:18.472Z,5.00
2017-10-28T01:29:21.245Z,4.70
2017-10-28T01:31:23.932Z,5.27
2017-10-28T01:33:26.808Z,5.17
2017-10-28T01:35:29.470Z,4.90
2017-10-28T01:37:32.151Z,4.70
2017-10-28T01:39:34.777Z,4.70
2017-10-28T01:41:37.435Z,4.20
2017-10-28T01:43:40.112Z,4.90
2017-10-28T01:45:42.775Z,4.80
2017-10-28T01:47:45.567Z,4.63
2017-10-28T01:49:48.212Z,4.37
2017-10-28T01:51:50.861Z,4.60
2017-10-28T01:53:54.505Z,4.37
2017-10-28T01:55:57.172Z,4.20
2017-10-28T01:57:59.952Z,3.57
2017-10-28T02:00:02.627Z,4.27
2017-10-28T02:02:05.299Z,4.40
2017-10-28T02:04:09.227Z,4.33
2017-10-28T02:06:11.879Z,4.00
2017-10-28T02:08:14.555Z,3.73
2017-10-28T02:10:17.219Z,3.27
2017-10-28T02:12:19.886Z,3.70
2017-10-28T02:14:22.549Z,3.33
2017-10-28T02:16:25.981Z,3.93
2017-10-28T02:18:28.656Z,5.37
2017-10-28T02:20:31.558Z,3.63
2017-10-28T02:22:34.229Z,3.60
2017-10-28T02:24:36.906Z,4.17
2017-10-28T02:26:39.551Z,4.13
2017-10-28T02:28:42.217Z,4.00
2017-10-28T02:30:44.849Z,4.97
2017-10-28T02:32:47.514Z,4.10
2017-10-28T02:34:50.460Z,3.93
2017-10-28T02:36:53.102Z,5.00
2017-10-28T02:38:55.808Z,5.00
2017-10-28T02:40:58.478Z,3.93
2017-10-28T02:43:01.149Z,4.23
2017-10-28T02:45:04.656Z,4.10
2017-10-28T02:47:07.380Z,4.87
2017-10-28T02:49:10.058Z,4.97
2017-10-28T02:51:12.714Z,5.20
2017-10-28T02:53:15.397Z,5.03
2017-10-28T02:55:18.052Z,5.03
2017-10-28T02:57:20.708Z,6.37
2017-10-28T02:59:23.406Z,6.13
2017-10-28T03:01:26.180Z,5.83
2017-10-28T03:03:28.864Z,6.33
2017-10-28T03:05:31.533Z,6.90
2017-10-28T03:07:34.192Z,6.63
2017-10-28T03:09:36.895Z,8.00
2017-10-28T03:11:39.583Z,7.80
2017-10-28T03:13:42.253Z,7.00
2017-10-28T03:15:44.899Z,7.10
2017-10-28T03:17:47.579Z,8.00
2017-10-28T03:19:50.257Z,7.63
2017-10-28T03:21:52.901Z,7.80
2017-10-28T03:23:56.469Z,7.60
2017-10-28T03:25:59.129Z,10.20
2017-10-28T03:28:01.792Z,8.43
2017-10-28T03:30:04.451Z,8.30
2017-10-28T03:32:07.125Z,8.70
2017-10-28T03:34:09.808Z,8.83
2017-10-28T03:36:12.492Z,8.77
2017-10-28T03:38:15.156Z,8.83
2017-10-28T03:40:17.877Z,8.90
2017-10-28T03:42:20.549Z,9.93
2017-10-28T03:44:23.221Z,9.13
2017-10-28T03:46:25.967Z,8.77
2017-10-28T03:48:28.631Z,10.10
2017-10-28T03:50:32.144Z,9.00
2017-10-28T03:52:34.793Z,9.73
2017-10-28T03:54:38.256Z,9.50
2017-10-28T03:56:40.993Z,9.87
2017-10-28T03:58:43.658Z,9.90
2017-10-28T04:00:46.321Z,10.93
2017-10-28T04:02:49.734Z,10.60
2017-10-28T04:04:52.516Z,10.60
2017-10-28T04:06:55.187Z,10.97
2017-10-28T04:08:57.870Z,10.80
2017-10-28T04:11:00.540Z,11.00
2017-10-28T04:13:03.206Z,12.27
2017-10-28T04:15:05.871Z,10.80
2017-10-28T04:17:09.277Z,11.70
2017-10-28T04:19:11.954Z,10.83
2017-10-28T04:21:14.735Z,10.47
2017-10-28T04:23:17.411Z,11.67
2017-10-28T04:25:20.054Z,11.60
2017-10-28T04:27:22.711Z,12.53
2017-10-28T04:29:25.412Z,12.00
2017-10-28T04:31:28.946Z,10.83
2017-10-28T04:33:31.627Z,11.07
2017-10-28T04:35:34.283Z,11.70
2017-10-28T04:37:36.932Z,10.70
2017-10-28T04:39:40.398Z,10.40
2017-10-28T04:41:43.068Z,10.23
2017-10-28T04:43:45.733Z,10.40
2017-10-28T04:45:48.472Z,11.10
2017-10-28T04:47:51.974Z,9.33
2017-10-28T04:49:54.658Z,10.30
2017-10-28T04:51:57.340Z,9.90
2017-10-28T04:54:00.118Z,9.17
2017-10-28T04:56:02.783Z,9.93
2017-10-28T04:58:05.492Z,9.87
2017-10-28T05:00:09.692Z,9.97
2017-10-28T05:02:12.570Z,9.10
2017-10-28T05:04:15.252Z,9.20
2017-10-28T05:06:17.947Z,8.50
2017-10-28T05:08:20.650Z,8.87
2017-10-28T05:10:23.301Z,8.80
2017-10-28T05:12:26.053Z,8.90
2017-10-28T05:14:28.750Z,11.03
2017-10-28T05:16:31.421Z,10.07
2017-10-28T05:18:34.126Z,9.33
2017-10-28T05:20:36.804Z,9.70
2017-10-28T05:22:39.433Z,8.87
2017-10-28T05:24:42.099Z,8.93
2017-10-28T05:26:44.783Z,9.00
2017-10-28T05:28:47.471Z,9.87
2017-10-28T05:30:50.333Z,10.60
2017-10-28T05:32:52.981Z,9.20
2017-10-28T05:34:56.529Z,9.60
2017-10-28T05:37:00.315Z,9.10
2017-10-28T05:39:03.013Z,10.40
2017-10-28T05:41:05.709Z,10.47
2017-10-28T05:43:09.151Z,9.70
2017-10-28T05:45:11.875Z,9.60
2017-10-28T05:47:14.747Z,9.80
2017-10-28T05:49:17.472Z,10.07
2017-10-28T05:51:20.906Z,10.50
2017-10-28T05:53:23.588Z,9.70
2017-10-28T05:55:26.343Z,9.50
2017-10-28T05:57:29.001Z,10.37
2017-10-28T05:59:31.709Z,10.30
2017-10-28T06:01:34.428Z,10.57
2017-10-28T06:03:37.144Z,10.23
2017-10-28T06:05:40.015Z,9.80
2017-10-28T06:07:42.794Z,9.80
2017-10-28T06:09:45.464Z,10.87
2017-10-28T06:11:48.891Z,11.10
2017-10-28T06:13:51.586Z,10.97
2017-10-28T06:15:54.328Z,12.30
2017-10-28T06:17:56.980Z,9.67
2017-10-28T06:20:00.550Z,10.87
2017-10-28T06:22:03.310Z,10.07
2017-10-28T06:24:05.979Z,10.80
2017-10-28T06:26:08.885Z,12.17
2017-10-28T06:28:11.555Z,10.00
2017-10-28T06:30:14.283Z,10.40
2017-10-28T06:32:16.974Z,11.23
2017-10-28T06:34:19.757Z,10.73
2017-10-28T06:36:22.416Z,9.90
2017-10-28T06:38:25.086Z,10.00
2017-10-28T06:40:27.735Z,9.37
2017-10-28T06:42:30.616Z,9.80
2017-10-28T06:44:33.314Z,8.77
2017-10-28T06:46:35.969Z,10.97
2017-10-28T06:48:38.668Z,10.07
2017-10-28T06:50:42.194Z,10.20
2017-10-28T06:52:44.874Z,9.50
2017-10-28T06:54:47.566Z,10.17
2017-10-28T06:56:50.314Z,10.97
2017-10-28T06:58:54.102Z,9.90
2017-10-28T07:00:56.894Z,9.60
2017-10-28T07:02:59.685Z,12.03
2017-10-28T07:05:02.463Z,11.73
2017-10-28T07:07:05.122Z,9.83
2017-10-28T07:09:07.825Z,9.53
2017-10-28T07:11:10.515Z,10.60
2017-10-28T07:13:13.212Z,10.40
2017-10-28T07:15:15.926Z,11.03
2017-10-28T07:17:18.590Z,10.30
2017-10-28T07:19:22.053Z,10.10
2017-10-28T07:21:24.851Z,10.67
2017-10-28T07:23:28.266Z,10.70
2017-10-28T07:25:31.225Z,9.93
2017-10-28T07:27:34.640Z,9.93
2017-10-28T07:29:37.327Z,9.80
2017-10-28T07:31:39.965Z,10.30
2017-10-28T07:33:42.788Z,9.70
2017-10-28T07:35:45.453Z,10.97
2017-10-28T07:37:48.102Z,12.00
2017-10-28T07:39:51.547Z,9.80
2017-10-28T07:41:54.204Z,10.40
2017-10-28T07:43:57.005Z,10.53
2017-10-28T07:45:59.649Z,10.57
2017-10-28T07:48:02.309Z,10.50
2017-10-28T07:50:05.854Z,9.40
2017-10-28T07:52:08.498Z,8.77
2017-10-28T07:54:11.172Z,9.20
2017-10-28T07:56:13.858Z,8.93
2017-10-28T07:58:16.502Z,9.03
2017-10-28T08:00:19.959Z,9.53
2017-10-28T08:02:22.602Z,9.43
2017-10-28T08:04:25.291Z,9.00
2017-10-28T08:06:27.995Z,8.90
2017-10-28T08:08:30.844Z,9.17
2017-10-28T08:10:33.521Z,10.30
2017-10-28T08:12:36.305Z,9.90
2017-10-28T08:14:38.984Z,10.40
2017-10-28T08:16:41.652Z,12.17
2017-10-28T08:18:44.320Z,12.33
2017-10-28T08:20:46.995Z,10.00
2017-10-28T08:22:49.769Z,9.67
2017-10-28T08:24:52.449Z,12.33
2017-10-28T08:26:55.094Z,11.87
2017-10-28T08:28:58.548Z,10.27
2017-10-28T08:31:01.211Z,9.30
2017-10-28T08:33:03.886Z,13.13
2017-10-28T08:35:06.699Z,11.90
2017-10-28T08:37:10.145Z,10.70
2017-10-28T08:39:12.822Z,9.60
2017-10-28T08:41:15.480Z,9.83
2017-10-28T08:43:18.265Z,9.50
2017-10-28T08:45:20.967Z,11.40
2017-10-28T08:47:23.653Z,9.17
2017-10-28T08:49:26.339Z,9.60
2017-10-28T08:51:29.090Z,9.20
2017-10-28T08:53:31.733Z,9.00
2017-10-28T08:55:35.219Z,9.53
2017-10-28T08:57:38.627Z,9.20
2017-10-28T08:59:42.358Z,8.60
2017-10-28T09:01:45.231Z,9.03
2017-10-28T09:03:48.040Z,8.50
2017-10-28T09:05:50.739Z,8.90
2017-10-28T09:07:53.441Z,8.40
2017-10-28T09:09:56.155Z,8.50
2017-10-28T09:11:58.850Z,9.30
2017-10-28T09:14:01.592Z,8.67
2017-10-28T09:16:04.269Z,8.77
2017-10-28T09:18:06.974Z,7.63
2017-10-28T09:20:09.672Z,8.10
2017-10-28T09:22:12.338Z,8.90
2017-10-28T09:24:15.138Z,8.30
2017-10-28T09:26:18.575Z,8.73
2017-10-28T09:28:21.236Z,8.40
2017-10-28T09:30:23.903Z,8.50
2017-10-28T09:32:27.327Z,8.27
2017-10-28T09:34:30.004Z,8.10
2017-10-28T09:36:32.863Z,8.93
2017-10-28T09:38:35.651Z,9.10
2017-10-28T09:40:38.400Z,8.90
2017-10-28T09:42:43.072Z,10.93
2017-10-28T09:44:46.556Z,8.67
2017-10-28T09:46:49.218Z,9.90
2017-10-28T09:48:51.999Z,9.40
2017-10-28T09:50:54.703Z,10.23
2017-10-28T09:52:57.460Z,10.03
2017-10-28T09:55:00.150Z,10.27
2017-10-28T09:57:02.812Z,9.17
2017-10-28T09:59:05.481Z,10.83
2017-10-28T10:01:08.150Z,9.60
2017-10-28T10:03:10.809Z,9.67
2017-10-28T10:05:14.339Z,9.60
2017-10-28T10:07:17.114Z,9.53
2017-10-28T10:09:19.821Z,9.83
2017-10-28T10:11:22.515Z,9.67
2017-10-28T10:13:25.179Z,9.50
2017-10-28T10:15:27.869Z,10.10
2017-10-28T10:17:30.525Z,9.80
2017-10-28T10:19:33.265Z,10.07
2017-10-28T10:21:35.942Z,9.90
2017-10-28T10:23:38.607Z,10.10
2017-10-28T10:25:42.063Z,10.40
2017-10-28T10:27:44.719Z,11.07
2017-10-28T10:29:47.416Z,10.27
2017-10-28T10:31:50.069Z,10.00
2017-10-28T10:33:52.766Z,10.30
2017-10-28T10:35:55.453Z,10.30
2017-10-28T10:37:58.139Z,10.50
2017-10-28T10:40:01.609Z,9.73
2017-10-28T10:42:04.272Z,10.40
2017-10-28T10:44:06.969Z,10.27
2017-10-28T10:46:09.682Z,10.53
2017-10-28T10:48:12.356Z,11.20
2017-10-28T10:50:15.802Z,9.90
2017-10-28T10:52:18.469Z,11.87
2017-10-28T10:54:23.111Z,11.93
2017-10-28T10:56:25.848Z,10.53
2017-10-28T10:58:28.501Z,10.20
2017-10-28T11:00:31.247Z,12.03
2017-10-28T11:02:33.897Z,12.77
2017-10-28T11:04:36.573Z,12.50
2017-10-28T11:06:39.259Z,11.10
2017-10-28T11:08:41.932Z,11.30
2017-10-28T11:10:44.632Z,12.37
2017-10-28T11:12:47.321Z,12.80
2017-10-28T11:14:50.779Z,12.00
2017-10-28T11:16:53.451Z,12.17
2017-10-28T11:18:56.214Z,12.50
2017-10-28T11:20:58.898Z,11.10
2017-10-28T11:23:01.580Z,11.93
2017-10-28T11:25:04.264Z,13.73
2017-10-28T11:27:06.921Z,11.80
2017-10-28T11:29:09.604Z,12.20
2017-10-28T11:31:12.279Z,14.47
2017-10-28T11:33:19.673Z,19.20
2017-10-28T11:37:48.800Z,15.47
2017-10-28T11:40:05.958Z,12.30
2017-10-28T11:42:13.949Z,13.50
2017-10-28T11:44:24.780Z,12.70
2017-10-28T11:46:33.123Z,12.20
2017-10-28T11:48:36.554Z,12.10
2017-10-28T11:50:39.228Z,11.90
2017-10-28T11:52:43.661Z,11.13
2017-10-28T11:54:46.367Z,11.60
2017-10-28T11:56:49.030Z,11.47
2017-10-28T11:58:51.673Z,11.10
2017-10-28T12:00:54.348Z,11.57
2017-10-28T12:02:57.011Z,12.17
2017-10-28T12:04:59.704Z,12.90
2017-10-28T12:07:02.345Z,12.40
2017-10-28T12:09:05.761Z,11.20
2017-10-28T12:11:08.424Z,12.37
2017-10-28T12:13:12.964Z,12.33
2017-10-28T12:15:15.848Z,11.23
2017-10-28T12:17:18.515Z,11.43
2017-10-28T12:19:21.293Z,10.17
2017-10-28T12:21:24.004Z,11.60
2017-10-28T12:23:26.663Z,11.43
2017-10-28T12:25:29.338Z,12.70
2017-10-28T12:27:31.985Z,12.37
2017-10-28T12:29:34.636Z,11.70
2017-10-28T12:31:38.817Z,12.57
2017-10-28T12:33:41.491Z,11.23
2017-10-28T12:35:44.177Z,12.00
2017-10-28T12:37:47.039Z,14.20
2017-10-28T12:39:49.732Z,11.50
2017-10-28T12:41:52.478Z,11.40
2017-10-28T12:43:55.360Z,11.83
2017-10-28T12:45:58.141Z,12.00
2017-10-28T12:48:00.919Z,12.20
2017-10-28T12:50:03.707Z,11.13
2017-10-28T12:52:06.353Z,11.13
2017-10-28T12:54:09.882Z,10.53
2017-10-28T12:56:12.732Z,10.60
2017-10-28T12:58:15.395Z,10.47
2017-10-28T13:00:18.920Z,9.57
2017-10-28T13:02:21.790Z,11.10
2017-10-28T13:04:24.461Z,10.10
2017-10-28T13:06:27.191Z,9.07
2017-10-28T13:08:30.847Z,10.10
2017-10-28T13:10:33.552Z,9.73
2017-10-28T13:12:36.271Z,9.00
2017-10-28T13:14:39.702Z,10.10
2017-10-28T13:16:42.387Z,8.13
2017-10-28T13:18:45.047Z,9.13
2017-10-28T13:20:47.729Z,10.30
2017-10-28T13:22:50.712Z,9.83
2017-10-28T13:24:54.784Z,10.67
2017-10-28T13:26:58.490Z,9.40
2017-10-28T13:29:02.651Z,10.40
2017-10-28T13:31:06.187Z,10.50
2017-10-28T13:33:09.442Z,10.43
2017-10-28T13:35:13.327Z,11.23
2017-10-28T13:37:17.203Z,10.33
2017-10-28T13:39:20.024Z,10.93
2017-10-28T13:41:22.707Z,10.57
2017-10-28T13:43:26.391Z,10.27
2017-10-28T13:45:29.169Z,11.80
2017-10-28T13:47:31.827Z,14.37
2017-10-28T13:49:34.464Z,11.83
2017-10-28T13:51:37.154Z,11.40
2017-10-28T13:53:40.578Z,11.40
2017-10-28T13:55:43.279Z,12.07
2017-10-28T13:57:45.947Z,13.67
2017-10-28T13:59:48.769Z,12.40
2017-10-28T14:01:52.720Z,12.50
2017-10-28T14:03:56.196Z,11.03
2017-10-28T14:06:00.237Z,11.00
2017-10-28T14:08:03.008Z,12.27
2017-10-28T14:10:10.902Z,11.03
2017-10-28T14:12:14.760Z,11.27
2017-10-28T14:14:17.400Z,12.50
2017-10-28T14:16:21.122Z,10.73
2017-10-28T14:18:23.782Z,9.80
2017-10-28T14:20:26.538Z,9.60
2017-10-28T14:22:29.605Z,10.50
2017-10-28T14:24:32.347Z,9.90
2017-10-28T14:26:35.932Z,12.67
2017-10-28T14:28:38.736Z,11.60
2017-10-28T14:30:42.206Z,11.63
2017-10-28T14:32:45.154Z,11.23
2017-10-28T14:34:48.093Z,11.33
2017-10-28T14:36:50.813Z,12.30
2017-10-28T14:38:53.582Z,11.20
2017-10-28T14:40:56.482Z,11.47
2017-10-28T14:42:59.265Z,12.67
2017-10-28T14:45:02.319Z,12.03
2017-10-28T14:47:05.259Z,13.57
2017-10-28T14:49:08.376Z,13.67
2017-10-28T14:51:11.982Z,14.37
2017-10-28T14:53:15.509Z,11.23
2017-10-28T14:55:18.150Z,14.03
2017-10-28T14:57:21.589Z,12.50
2017-10-28T14:59:24.265Z,14.13
2017-10-28T15:01:26.941Z,13.00
2017-10-28T15:03:29.924Z,13.50
2017-10-28T15:05:32.735Z,14.03
2017-10-28T15:07:36.334Z,13.50
2017-10-28T15:09:39.800Z,14.00
2017-10-28T15:11:42.884Z,13.87
2017-10-28T15:13:45.646Z,14.50
2017-10-28T15:15:48.325Z,13.17
2017-10-28T15:17:51.006Z,14.57
2017-10-28T15:19:53.861Z,14.73
2017-10-28T15:21:56.650Z,14.23
2017-10-28T15:23:59.453Z,15.80
2017-10-28T15:26:02.150Z,15.57
2017-10-28T15:28:05.083Z,14.60
2017-10-28T15:30:07.909Z,15.77
2017-10-28T15:32:10.716Z,16.43
2017-10-28T15:34:14.349Z,18.67
2017-10-28T15:36:17.130Z,17.90
2017-10-28T15:38:19.779Z,19.10
2017-10-28T15:40:23.196Z,20.10
2017-10-28T15:42:25.874Z,19.53
2017-10-28T15:44:28.663Z,21.30
2017-10-28T15:46:31.360Z,19.33
2017-10-28T15:48:34.010Z,21.33
2017-10-28T15:50:36.690Z,18.63
2017-10-28T15:52:39.355Z,20.53
2017-10-28T15:54:42.005Z,18.63
2017-10-28T15:56:44.690Z,20.10
2017-10-28T15:58:47.477Z,18.20
2017-10-28T16:00:50.142Z,22.77
2017-10-28T16:02:52.819Z,21.77
2017-10-28T16:04:55.480Z,20.57
2017-10-28T16:06:58.936Z,22.73
2017-10-28T16:09:01.586Z,21.80
2017-10-28T16:11:04.249Z,20.30
2017-10-28T16:13:06.948Z,21.93
2017-10-28T16:15:09.687Z,21.70
2017-10-28T16:17:13.143Z,20.10
2017-10-28T16:19:15.817Z,20.40
2017-10-28T16:21:18.498Z,20.43
2017-10-28T16:23:21.161Z,20.90
2017-10-28T16:25:23.809Z,20.90
2017-10-28T16:27:26.587Z,20.80
2017-10-28T16:29:29.397Z,21.47
2017-10-28T16:31:32.143Z,24.20
2017-10-28T16:33:34.832Z,22.97
2017-10-28T16:35:37.512Z,22.30
2017-10-28T16:37:40.256Z,22.90
2017-10-28T16:39:42.956Z,24.50
2017-10-28T16:41:46.140Z,24.60
2017-10-28T16:43:48.781Z,28.00
2017-10-28T16:45:52.240Z,25.60
2017-10-28T16:47:54.912Z,27.97
2017-10-28T16:49:57.583Z,28.30
2017-10-28T16:52:00.260Z,28.50
2017-10-28T16:54:02.917Z,28.80
2017-10-28T16:56:05.596Z,27.73
2017-10-28T16:58:08.279Z,29.20
2017-10-28T17:00:11.045Z,29.37
2017-10-28T17:02:13.747Z,30.00
2017-10-28T17:04:16.450Z,31.67
2017-10-28T17:06:19.148Z,30.03
2017-10-28T17:08:22.575Z,31.60
2017-10-28T17:10:25.238Z,30.80
2017-10-28T17:12:27.914Z,30.50
2017-10-28T17:14:30.660Z,31.60
2017-10-28T17:16:33.321Z,29.90
2017-10-28T17:18:36.009Z,31.33
2017-10-28T17:20:38.667Z,31.03
2017-10-28T17:22:50.261Z,30.80
2017-10-28T17:24:52.963Z,31.50
2017-10-28T17:26:56.756Z,29.93
2017-10-28T17:29:01.176Z,33.10
2017-10-28T17:31:04.132Z,30.70
2017-10-28T17:33:11.514Z,33.83
2017-10-28T17:35:15.433Z,33.00
2017-10-28T17:37:18.926Z,33.53
2017-10-28T17:39:28.232Z,31.47
2017-10-28T17:41:35.744Z,36.27
2017-10-28T17:43:39.500Z,35.50
2017-10-28T17:45:42.992Z,34.50
2017-10-28T17:47:46.635Z,34.83
2017-10-28T17:49:51.124Z,36.20
2017-10-28T17:51:53.856Z,36.30
2017-10-28T17:53:56.508Z,34.60
2017-10-28T17:55:59.185Z,33.40
2017-10-28T17:58:01.834Z,34.70
2017-10-28T18:00:04.549Z,33.47
2017-10-28T18:02:08.322Z,32.67
2017-10-28T18:04:10.975Z,35.27
2017-10-28T18:06:13.656Z,36.00
2017-10-28T18:08:16.334Z,35.90
2017-10-28T18:10:19.118Z,36.43
2017-10-28T18:12:22.687Z,37.00
2017-10-28T18:14:25.412Z,36.13
2017-10-28T18:16:30.258Z,36.93
2017-10-28T18:18:36.745Z,34.10
2017-10-28T18:20:43.893Z,37.17
2017-10-28T18:22:49.093Z,37.43
2017-10-28T18:24:52.843Z,38.83
2017-10-28T18:26:58.063Z,38.57
2017-10-28T18:29:02.227Z,36.70
2017-10-28T18:31:06.596Z,40.10
2017-10-28T18:33:10.209Z,37.23
2017-10-28T18:35:15.224Z,37.03
2017-10-28T18:37:20.977Z,38.47
2017-10-28T18:39:24.297Z,37.30
2017-10-28T18:41:27.747Z,38.33
2017-10-28T18:43:31.529Z,40.80
2017-10-28T18:45:34.211Z,40.20
2017-10-28T18:47:38.036Z,38.07
2017-10-28T18:49:41.005Z,38.13
2017-10-28T18:51:43.979Z,39.03
2017-10-28T18:53:46.920Z,40.10
2017-10-28T18:55:50.492Z,39.93
2017-10-28T18:57:53.879Z,41.57
2017-10-28T18:59:56.685Z,39.10
2017-10-28T19:02:05.479Z,36.30
2017-10-28T19:04:10.843Z,37.20
2017-10-28T19:06:16.150Z,38.03
2017-10-28T19:08:19.064Z,37.70
2017-10-28T19:10:25.560Z,40.10
2017-10-28T19:12:33.644Z,37.80
2017-10-28T19:14:37.096Z,37.83
2017-10-28T19:16:42.347Z,39.67
2017-10-28T19:18:48.320Z,38.20
2017-10-28T19:20:56.403Z,40.47
2017-10-28T19:23:04.122Z,41.73
2017-10-28T19:25:07.184Z,40.97
2017-10-28T19:27:10.944Z,43.37
2017-10-28T19:29:14.042Z,42.80
2017-10-28T19:31:18.065Z,45.70
2017-10-28T19:33:20.758Z,48.50
2017-10-28T19:35:23.543Z,45.07
2017-10-28T19:37:26.200Z,48.07
2017-10-28T19:39:28.962Z,45.37
2017-10-28T19:41:32.251Z,46.70
2017-10-28T19:43:34.920Z,51.97
2017-10-28T19:45:38.290Z,48.37
2017-10-28T19:47:42.002Z,55.23
2017-10-28T19:49:47.743Z,53.67
2017-10-28T19:51:50.429Z,54.53
2017-10-28T19:53:53.387Z,52.97
2017-10-28T19:55:56.130Z,55.47
2017-10-28T19:57:58.815Z,53.33
2017-10-28T20:00:01.580Z,54.10
2017-10-28T20:02:04.274Z,55.07
2017-10-28T20:04:07.646Z,52.70
2017-10-28T20:06:11.134Z,53.43
2017-10-28T20:08:14.245Z,50.43
2017-10-28T20:10:16.984Z,53.07
2017-10-28T20:12:21.965Z,52.10
2017-10-28T20:14:24.884Z,49.17
2017-10-28T20:16:32.130Z,50.00
2017-10-28T20:18:43.333Z,52.20
2017-10-28T20:20:47.368Z,48.10
2017-10-28T20:22:51.581Z,46.43
2017-10-28T20:24:57.373Z,48.23
2017-10-28T20:27:01.569Z,48.53
2017-10-28T20:29:04.448Z,47.97
2017-10-28T20:31:07.608Z,47.10
2017-10-28T20:33:10.328Z,52.33
2017-10-28T20:35:12.977Z,50.10
2017-10-28T20:37:15.741Z,48.70
2017-10-28T20:39:18.438Z,47.90
2017-10-28T20:41:22.149Z,49.20
2017-10-28T20:43:24.845Z,45.33
2017-10-28T20:45:58.915Z,47.30
2017-10-28T20:48:03.960Z,43.70
2017-10-28T20:50:07.258Z,42.00
2017-10-28T20:52:10.011Z,44.30
2017-10-28T20:54:12.684Z,42.70
2017-10-28T20:56:15.333Z,46.57
2017-10-28T20:58:18.830Z,45.13
2017-10-28T21:00:22.349Z,42.60
2017-10-28T21:02:25.130Z,44.70
2017-10-28T21:04:27.846Z,42.90
2017-10-28T21:06:30.689Z,46.17
2017-10-28T21:08:33.364Z,45.40
2017-10-28T21:10:36.012Z,45.13
2017-10-28T21:12:39.463Z,45.87
2017-10-28T21:14:42.353Z,42.90
2017-10-28T21:16:45.020Z,45.17
2017-10-28T21:18:47.700Z,43.20
2017-10-28T21:20:50.345Z,45.50
2017-10-28T21:22:53.021Z,45.90
2017-10-28T21:24:55.799Z,42.70
2017-10-28T21:26:58.830Z,44.17
2017-10-28T21:29:01.622Z,47.60
2017-10-28T21:31:04.297Z,48.80
2017-10-28T21:33:07.872Z,46.80
2017-10-28T21:35:11.236Z,50.17
2017-10-28T21:37:14.010Z,51.33
2017-10-28T21:39:17.191Z,56.27
2017-10-28T21:41:19.914Z,51.13
2017-10-28T21:43:22.759Z,54.37
2017-10-28T21:45:25.621Z,54.30
2017-10-28T21:47:29.727Z,52.83
2017-10-28T21:49:32.377Z,50.97
2017-10-28T21:51:35.803Z,57.00
2017-10-28T21:53:38.491Z,51.50
2017-10-28T21:55:41.329Z,50.27
2017-10-28T21:57:44.777Z,51.10
2017-10-28T21:59:47.464Z,46.17
2017-10-28T22:01:50.113Z,50.73
2017-10-28T22:03:52.813Z,48.20
2017-10-28T22:05:55.522Z,46.40
2017-10-28T22:07:58.187Z,45.70
2017-10-28T22:10:00.881Z,45.33
2017-10-28T22:12:04.452Z,43.87
2017-10-28T22:14:07.122Z,44.03
2017-10-28T22:16:09.793Z,41.40
2017-10-28T22:18:12.445Z,41.40
2017-10-28T22:20:15.219Z,40.93
2017-10-28T22:22:17.921Z,40.20
2017-10-28T22:24:20.580Z,40.40
2017-10-28T22:26:23.241Z,39.00
2017-10-28T22:28:25.917Z,38.13
2017-10-28T22:30:28.565Z,39.30
2017-10-28T22:32:31.986Z,36.57
2017-10-28T22:34:34.693Z,36.47
2017-10-28T22:36:37.370Z,36.90
2017-10-28T22:38:40.021Z,34.50
2017-10-28T22:40:42.728Z,32.43
2017-10-28T22:42:45.394Z,29.80
2017-10-28T22:44:48.239Z,29.83
2017-10-28T22:46:50.932Z,28.40
2017-10-28T22:48:53.593Z,28.00
2017-10-28T22:50:56.311Z,26.83
2017-10-28T22:52:59.015Z,26.20
2017-10-28T22:55:02.810Z,24.67
2017-10-28T22:57:05.477Z,24.73
2017-10-28T22:59:08.158Z,25.90
2017-10-28T23:01:10.831Z,24.77
2017-10-28T23:03:13.517Z,23.47
2017-10-28T23:05:16.271Z,21.93
2017-10-28T23:07:18.948Z,20.10
2017-10-28T23:09:21.593Z,22.50
2017-10-28T23:11:24.377Z,20.00
2017-10-28T23:13:27.059Z,18.00
2017-10-28T23:15:29.771Z,18.40
2017-10-28T23:17:32.445Z,18.73
2017-10-28T23:19:35.112Z,19.00
2017-10-28T23:21:37.829Z,17.30
2017-10-28T23:23:41.356Z,17.97
2017-10-28T23:25:44.055Z,16.70
2017-10-28T23:27:46.830Z,15.30
2017-10-28T23:29:49.503Z,16.43
2017-10-28T23:31:52.195Z,15.60
2017-10-28T23:33:54.863Z,13.90
2017-10-28T23:35:57.532Z,15.47
2017-10-28T23:38:00.200Z,14.90
2017-10-28T23:40:02.853Z,13.27
2017-10-28T23:42:05.667Z,12.43
2017-10-28T23:44:08.410Z,11.80
2017-10-28T23:46:11.084Z,11.90
2017-10-28T23:48:13.782Z,11.47
2017-10-28T23:50:16.425Z,12.50
2017-10-28T23:52:19.891Z,10.23
2017-10-28T23:54:22.552Z,9.50
2017-10-28T23:56:25.228Z,8.93
2017-10-28T23:58:27.986Z,9.73
